createdAt,value
2019-04-19T00:01:35.313Z,79.30
2019-04-19T00:04:05.980Z,79.30
2019-04-19T00:06:41.402Z,79.50
2019-04-19T00:09:26.355Z,79.20
2019-04-19T00:11:47.247Z,85.10
2019-04-19T00:14:12.753Z,82.00
2019-04-19T00:16:42.761Z,80.70
2019-04-19T00:19:30.127Z,80.10
2019-04-19T00:22:08.644Z,79.90
2019-04-19T00:24:14.616Z,79.90
2019-04-19T00:26:44.376Z,79.90
2019-04-19T00:29:37.922Z,79.80
2019-04-19T00:32:19.332Z,79.90
2019-04-19T00:34:29.866Z,79.80
2019-04-19T00:36:59.511Z,79.90
2019-04-19T00:40:06.456Z,79.70
2019-04-19T00:42:48.332Z,79.70
2019-04-19T00:45:31.192Z,79.90
2019-04-19T00:48:04.210Z,80.00
2019-04-19T00:50:29.950Z,80.00
2019-04-19T00:53:08.874Z,79.90
2019-04-19T00:55:31.605Z,79.80
2019-04-19T00:58:02.752Z,79.80
2019-04-19T01:00:30.576Z,79.90
2019-04-19T01:02:59.424Z,79.80
2019-04-19T01:05:31.615Z,79.80
2019-04-19T01:08:06.190Z,80.00
2019-04-19T01:10:44.106Z,80.00
2019-04-19T01:13:12.819Z,80.70
2019-04-19T01:15:49.444Z,79.90
2019-04-19T01:18:21.383Z,80.00
2019-04-19T01:20:37.378Z,80.10
2019-04-19T01:23:10.686Z,80.10
2019-04-19T01:25:39.464Z,80.10
2019-04-19T01:28:15.997Z,80.00
2019-04-19T01:30:42.851Z,80.00
2019-04-19T01:33:12.472Z,80.00
2019-04-19T01:35:47.470Z,80.00
2019-04-19T01:38:13.628Z,80.10
2019-04-19T01:41:04.242Z,80.40
2019-04-19T01:43:34.440Z,80.30
2019-04-19T01:46:07.043Z,80.30
2019-04-19T01:48:50.414Z,80.30
2019-04-19T01:51:42.233Z,80.50
2019-04-19T01:54:11.398Z,80.60
2019-04-19T01:56:26.342Z,80.60
2019-04-19T01:59:00.115Z,80.40
2019-04-19T02:01:30.289Z,80.70
2019-04-19T02:03:58.773Z,80.70
2019-04-19T02:06:33.778Z,80.90
2019-04-19T02:09:00.757Z,80.80
2019-04-19T02:11:49.494Z,80.90
2019-04-19T02:14:18.718Z,80.70
2019-04-19T02:16:51.186Z,80.90
2019-04-19T02:19:19.104Z,81.00
2019-04-19T02:21:51.028Z,81.00
2019-04-19T02:24:27.635Z,81.00
2019-04-19T02:26:57.611Z,81.10
2019-04-19T02:29:25.388Z,81.60
2019-04-19T02:32:30.187Z,81.00
2019-04-19T02:39:57.367Z,81.10
2019-04-19T02:42:34.768Z,81.20
2019-04-19T02:47:39.288Z,81.00
2019-04-19T03:00:54.616Z,81.10
2019-04-19T03:08:00.003Z,81.50
2019-04-19T03:10:31.222Z,81.50
2019-04-19T03:13:17.335Z,81.30
2019-04-19T03:18:23.673Z,81.20
2019-04-19T03:20:49.446Z,81.20
2019-04-19T03:23:17.849Z,81.30
2019-04-19T03:25:47.943Z,81.20
2019-04-19T03:28:20.332Z,81.40
2019-04-19T03:31:08.745Z,81.50
2019-04-19T03:33:50.591Z,81.50
2019-04-19T03:38:30.165Z,82.00
2019-04-19T03:41:02.860Z,82.00
2019-04-19T03:43:42.781Z,81.80
2019-04-19T03:46:13.508Z,81.90
2019-04-19T03:48:46.338Z,82.10
2019-04-19T03:56:17.509Z,82.00
2019-04-19T03:58:30.283Z,82.20
2019-04-19T04:01:00.117Z,82.20
2019-04-19T04:03:35.750Z,82.00
2019-04-19T04:06:01.865Z,82.00
2019-04-19T04:08:38.069Z,82.00
2019-04-19T04:11:25.344Z,82.10
2019-04-19T04:14:24.546Z,82.20
2019-04-19T04:17:00.057Z,82.30
2019-04-19T04:19:29.675Z,82.20
2019-04-19T04:21:59.163Z,82.30
2019-04-19T04:24:34.485Z,82.50
2019-04-19T04:27:07.985Z,82.60
2019-04-19T04:29:36.485Z,83.30
2019-04-19T04:32:13.777Z,82.30
2019-04-19T04:34:44.401Z,82.30
2019-04-19T04:37:23.655Z,82.50
2019-04-19T04:39:36.619Z,82.50
2019-04-19T04:42:16.435Z,82.50
2019-04-19T04:45:02.148Z,82.50
2019-04-19T04:47:40.841Z,82.60
2019-04-19T04:50:50.535Z,82.70
2019-04-19T04:53:03.018Z,82.80
2019-04-19T04:55:45.081Z,82.80
2019-04-19T04:58:16.306Z,82.80
2019-04-19T05:00:48.288Z,82.60
2019-04-19T05:03:32.746Z,81.60
2019-04-19T05:06:04.153Z,81.60
2019-04-19T05:08:37.724Z,82.50
2019-04-19T05:11:09.545Z,82.70
2019-04-19T05:13:34.862Z,82.90
2019-04-19T05:16:06.794Z,83.00
2019-04-19T05:18:36.477Z,83.30
2019-04-19T05:21:09.993Z,81.70
2019-04-19T05:23:43.637Z,80.60
2019-04-19T05:26:25.485Z,79.70
2019-04-19T05:28:41.026Z,79.40
2019-04-19T05:31:01.568Z,78.90
2019-04-19T05:33:43.048Z,79.10
2019-04-19T05:36:17.810Z,78.20
2019-04-19T05:39:03.152Z,77.70
2019-04-19T05:41:35.000Z,77.70
2019-04-19T05:47:11.915Z,77.00
2019-04-19T05:49:31.353Z,76.80
2019-04-19T05:52:01.008Z,76.30
2019-04-19T05:54:15.262Z,75.90
2019-04-19T05:56:50.524Z,76.60
2019-04-19T05:59:29.417Z,75.00
2019-04-19T06:02:01.470Z,75.50
2019-04-19T06:04:38.760Z,76.30
2019-04-19T06:07:10.912Z,74.90
2019-04-19T06:09:19.640Z,75.70
2019-04-19T06:11:49.733Z,77.70
2019-04-19T06:14:45.071Z,77.80
2019-04-19T06:17:28.199Z,79.50
2019-04-19T06:20:03.269Z,80.80
2019-04-19T06:22:35.203Z,80.90
2019-04-19T06:25:00.988Z,83.20
2019-04-19T06:27:43.679Z,82.60
2019-04-19T06:30:11.242Z,83.20
2019-04-19T06:32:42.094Z,84.10
2019-04-19T06:35:06.804Z,84.30
2019-04-19T06:37:24.700Z,83.90
2019-04-19T06:40:02.761Z,84.40
2019-04-19T06:42:34.182Z,82.00
2019-04-19T06:45:12.265Z,83.60
2019-04-19T06:47:32.427Z,83.60
2019-04-19T06:49:59.012Z,84.20
2019-04-19T06:52:31.738Z,82.70
2019-04-19T06:55:11.194Z,83.60
2019-04-19T06:57:38.529Z,83.60
2019-04-19T07:00:16.737Z,81.50
2019-04-19T07:02:34.939Z,81.90
2019-04-19T07:05:18.717Z,80.10
2019-04-19T07:08:07.568Z,81.50
2019-04-19T07:10:37.088Z,80.60
2019-04-19T07:12:57.586Z,80.20
2019-04-19T07:15:40.008Z,78.70
2019-04-19T07:17:53.473Z,81.90
2019-04-19T07:20:26.699Z,81.10
2019-04-19T07:23:01.375Z,81.80
2019-04-19T07:25:42.919Z,80.70
2019-04-19T07:27:55.615Z,80.50
2019-04-19T07:30:18.326Z,78.50
2019-04-19T07:32:55.593Z,80.20
2019-04-19T07:35:40.091Z,77.10
2019-04-19T07:38:19.670Z,72.80
2019-04-19T07:40:42.970Z,72.40
2019-04-19T07:43:10.691Z,73.10
2019-04-19T07:46:07.688Z,70.30
2019-04-19T07:48:29.108Z,71.60
2019-04-19T07:51:05.781Z,69.40
2019-04-19T07:53:38.475Z,72.00
2019-04-19T07:56:13.075Z,72.10
2019-04-19T08:01:39.004Z,70.70
2019-04-19T08:04:12.288Z,71.20
2019-04-19T08:06:43.722Z,69.30
2019-04-19T08:09:02.331Z,70.50
2019-04-19T08:28:56.446Z,68.90
2019-04-19T08:31:19.543Z,71.40
2019-04-19T08:33:49.406Z,68.50
2019-04-19T08:36:25.543Z,66.90
2019-04-19T08:39:06.853Z,68.00
2019-04-19T08:41:31.642Z,67.70
2019-04-19T08:44:10.314Z,70.50
2019-04-19T08:46:51.585Z,73.00
2019-04-19T08:49:36.591Z,72.90
2019-04-19T08:52:12.774Z,69.90
2019-04-19T08:55:00.632Z,71.00
2019-04-19T08:57:16.928Z,71.70
2019-04-19T09:00:07.985Z,71.40
2019-04-19T09:02:29.065Z,65.80
2019-04-19T09:05:07.366Z,68.70
2019-04-19T09:07:50.195Z,64.60
2019-04-19T09:10:22.150Z,65.20
2019-04-19T09:12:34.630Z,64.60
2019-04-19T09:15:15.426Z,65.30
2019-04-19T09:18:09.284Z,60.00
2019-04-19T09:22:56.683Z,59.40
2019-04-19T09:25:28.661Z,59.30
2019-04-19T09:28:18.176Z,62.70
2019-04-19T09:30:42.680Z,58.70
2019-04-19T09:32:55.380Z,60.10
2019-04-19T09:35:30.984Z,57.50
2019-04-19T09:38:11.361Z,58.60
2019-04-19T09:40:39.328Z,60.70
2019-04-19T09:43:17.281Z,60.80
2019-04-19T09:45:31.890Z,59.00
2019-04-19T09:48:01.481Z,60.40
2019-04-19T09:50:46.623Z,59.60
2019-04-19T09:53:31.043Z,57.50
2019-04-19T09:55:57.980Z,54.00
2019-04-19T09:58:21.143Z,54.30
2019-04-19T10:00:36.847Z,57.30
2019-04-19T10:03:18.857Z,55.60
2019-04-19T10:05:37.440Z,59.40
2019-04-19T10:08:06.932Z,57.90
2019-04-19T10:10:36.784Z,57.30
2019-04-19T10:13:07.716Z,57.50
2019-04-19T10:16:02.038Z,56.30
2019-04-19T10:18:43.559Z,56.90
2019-04-19T10:21:20.340Z,52.70
2019-04-19T10:23:47.723Z,54.90
2019-04-19T10:26:24.269Z,56.00
2019-04-19T10:28:53.897Z,49.30
2019-04-19T10:31:35.997Z,50.10
2019-04-19T10:34:07.466Z,48.70
2019-04-19T10:36:36.572Z,54.30
2019-04-19T10:39:11.918Z,51.80
2019-04-19T10:41:41.487Z,52.70
2019-04-19T10:44:15.486Z,54.50
2019-04-19T10:46:42.796Z,54.30
2019-04-19T10:49:18.311Z,55.30
2019-04-19T10:51:48.740Z,52.60
2019-04-19T10:54:18.293Z,51.00
2019-04-19T10:56:58.518Z,50.10
2019-04-19T10:59:28.015Z,51.00
2019-04-19T11:01:57.791Z,49.40
2019-04-19T11:04:27.351Z,47.20
2019-04-19T11:06:58.018Z,52.40
2019-04-19T11:09:27.536Z,48.80
2019-04-19T11:11:57.477Z,52.60
2019-04-19T11:14:28.107Z,48.90
2019-04-19T11:16:57.783Z,47.00
2019-04-19T11:19:44.802Z,50.00
2019-04-19T11:21:59.339Z,52.00
2019-04-19T11:24:29.898Z,50.60
2019-04-19T11:26:59.467Z,50.20
2019-04-19T11:29:28.960Z,49.40
2019-04-19T11:32:06.004Z,52.20
2019-04-19T11:34:37.418Z,51.30
2019-04-19T11:37:09.181Z,52.70
2019-04-19T11:39:39.139Z,48.90
2019-04-19T11:42:09.444Z,52.10
2019-04-19T11:44:39.532Z,49.50
2019-04-19T11:47:09.084Z,52.50
2019-04-19T11:49:42.005Z,50.90
2019-04-19T11:52:14.190Z,46.00
2019-04-19T11:57:10.747Z,47.50
2019-04-19T11:59:53.897Z,52.30
2019-04-19T12:02:26.277Z,51.90
2019-04-19T12:04:56.069Z,44.80
2019-04-19T12:07:26.301Z,43.10
2019-04-19T12:09:56.574Z,45.90
2019-04-19T12:12:27.489Z,46.20
2019-04-19T12:14:57.809Z,46.40
2019-04-19T12:17:27.455Z,47.40
2019-04-19T12:20:01.020Z,47.60
2019-04-19T12:22:28.001Z,49.70
2019-04-19T12:24:57.463Z,51.30
2019-04-19T12:27:27.566Z,47.10
2019-04-19T12:29:58.555Z,46.60
2019-04-19T12:32:35.598Z,50.20
2019-04-19T12:35:06.676Z,46.60
2019-04-19T12:37:37.842Z,44.90
2019-04-19T12:40:08.811Z,43.30
2019-04-19T12:42:38.242Z,47.10
2019-04-19T12:45:10.750Z,48.90
2019-04-19T12:47:40.671Z,47.80
2019-04-19T12:50:11.731Z,47.40
2019-04-19T12:52:42.242Z,44.00
2019-04-19T12:55:12.410Z,42.00
2019-04-19T12:57:48.268Z,49.30
2019-04-19T13:00:21.148Z,44.50
2019-04-19T13:03:13.845Z,50.80
2019-04-19T13:05:46.713Z,48.40
2019-04-19T13:08:17.124Z,49.00
2019-04-19T13:10:47.363Z,46.50
2019-04-19T13:13:18.072Z,43.60
2019-04-19T13:15:48.153Z,46.00
2019-04-19T13:18:18.277Z,47.60
2019-04-19T13:20:48.507Z,44.70
2019-04-19T13:23:18.029Z,46.80
2019-04-19T13:25:47.624Z,44.60
2019-04-19T13:28:17.506Z,45.10
2019-04-19T13:30:53.432Z,45.80
2019-04-19T13:33:18.622Z,43.20
2019-04-19T13:35:48.875Z,43.10
2019-04-19T13:38:43.478Z,42.60
2019-04-19T13:41:30.583Z,43.10
2019-04-19T13:44:00.731Z,41.10
2019-04-19T13:46:30.726Z,47.40
2019-04-19T13:49:00.872Z,43.20
2019-04-19T13:51:30.456Z,43.60
2019-04-19T13:54:00.575Z,42.80
2019-04-19T13:56:30.900Z,43.30
2019-04-19T13:59:01.427Z,46.00
2019-04-19T14:01:32.388Z,45.50
2019-04-19T14:04:01.928Z,44.10
2019-04-19T14:06:32.620Z,46.20
2019-04-19T14:09:03.038Z,40.10
2019-04-19T14:11:33.126Z,41.90
2019-04-19T14:14:04.836Z,43.40
2019-04-19T14:16:34.083Z,41.90
2019-04-19T14:19:05.476Z,41.80
2019-04-19T14:21:35.124Z,39.30
2019-04-19T14:24:05.508Z,46.90
2019-04-19T14:26:42.897Z,43.60
2019-04-19T14:29:07.516Z,45.60
2019-04-19T14:31:37.566Z,42.90
2019-04-19T14:34:07.106Z,45.50
2019-04-19T14:36:38.005Z,43.80
2019-04-19T14:39:09.046Z,39.90
2019-04-19T14:41:38.701Z,42.00
2019-04-19T14:44:09.256Z,45.80
2019-04-19T14:46:38.844Z,44.00
2019-04-19T14:49:09.034Z,43.80
2019-04-19T14:51:40.801Z,43.80
2019-04-19T14:54:10.980Z,47.50
2019-04-19T14:56:41.341Z,47.10
2019-04-19T14:59:10.871Z,43.80
2019-04-19T15:02:04.863Z,44.20
2019-04-19T15:04:47.251Z,40.80
2019-04-19T15:07:16.808Z,42.40
2019-04-19T15:09:46.268Z,40.60
2019-04-19T15:12:16.508Z,42.00
2019-04-19T15:14:49.078Z,42.70
2019-04-19T15:17:17.382Z,39.70
2019-04-19T15:19:48.206Z,44.20
2019-04-19T15:22:17.989Z,44.20
2019-04-19T15:24:48.672Z,46.40
2019-04-19T15:27:19.136Z,46.50
2019-04-19T15:29:49.186Z,41.60
2019-04-19T15:32:20.155Z,41.70
2019-04-19T15:34:50.208Z,41.90
2019-04-19T15:37:19.972Z,41.50
2019-04-19T15:39:49.586Z,40.80
2019-04-19T15:42:19.048Z,43.10
2019-04-19T15:44:49.054Z,47.70
2019-04-19T15:47:18.970Z,41.80
2019-04-19T15:49:48.793Z,44.60
2019-04-19T15:52:18.218Z,41.10
2019-04-19T15:54:47.948Z,47.70
2019-04-19T15:57:18.431Z,43.00
2019-04-19T15:59:48.101Z,48.10
2019-04-19T16:02:36.495Z,42.50
2019-04-19T16:05:40.054Z,41.90
2019-04-19T16:08:35.160Z,44.00
2019-04-19T16:11:34.623Z,43.40
2019-04-19T16:14:04.222Z,47.20
2019-04-19T16:16:33.742Z,43.90
2019-04-19T16:19:04.535Z,41.30
2019-04-19T16:21:41.594Z,43.20
2019-04-19T16:24:05.346Z,41.60
2019-04-19T16:26:35.034Z,39.20
2019-04-19T16:29:05.986Z,42.40
2019-04-19T16:31:36.178Z,41.60
2019-04-19T16:34:06.181Z,40.90
2019-04-19T16:36:35.644Z,40.80
2019-04-19T16:39:07.351Z,42.30
2019-04-19T16:41:37.202Z,42.40
2019-04-19T16:44:07.418Z,39.40
2019-04-19T16:46:37.202Z,41.80
2019-04-19T16:49:06.893Z,43.10
2019-04-19T16:51:45.310Z,40.80
2019-04-19T16:54:07.966Z,39.90
2019-04-19T16:56:37.619Z,41.70
2019-04-19T16:59:07.955Z,40.80
2019-04-19T17:01:38.828Z,41.20
2019-04-19T17:04:08.603Z,41.50
2019-04-19T17:06:38.464Z,43.40
2019-04-19T17:09:11.070Z,39.70
2019-04-19T17:11:41.718Z,41.00
2019-04-19T17:14:12.382Z,39.50
2019-04-19T17:17:00.917Z,41.80
2019-04-19T17:19:35.126Z,41.10
2019-04-19T17:22:11.831Z,43.30
2019-04-19T17:24:36.818Z,40.80
2019-04-19T17:27:06.914Z,44.20
2019-04-19T17:29:37.392Z,44.80
2019-04-19T17:32:07.929Z,46.20
2019-04-19T17:34:38.272Z,42.50
2019-04-19T17:37:08.523Z,43.40
2019-04-19T17:39:38.455Z,46.00
2019-04-19T17:42:08.533Z,44.20
2019-04-19T17:44:38.044Z,43.90
2019-04-19T17:47:10.299Z,43.50
2019-04-19T17:49:38.741Z,44.50
2019-04-19T17:52:15.108Z,48.40
2019-04-19T17:54:57.790Z,44.70
2019-04-19T17:57:11.271Z,45.50
2019-04-19T17:59:42.729Z,46.60
2019-04-19T18:02:13.023Z,47.50
2019-04-19T18:04:42.562Z,50.80
2019-04-19T18:07:13.170Z,52.60
2019-04-19T18:09:49.337Z,48.50
2019-04-19T18:12:13.797Z,53.00
2019-04-19T18:14:43.467Z,53.00
2019-04-19T18:17:12.925Z,50.70
2019-04-19T18:19:44.068Z,54.20
2019-04-19T18:22:20.716Z,54.30
2019-04-19T18:24:50.577Z,54.50
2019-04-19T18:27:22.777Z,54.10
2019-04-19T18:29:51.509Z,55.30
2019-04-19T18:32:25.996Z,52.80
2019-04-19T18:34:55.837Z,55.60
2019-04-19T18:37:29.390Z,54.80
2019-04-19T18:39:56.721Z,56.10
2019-04-19T18:42:26.216Z,56.60
2019-04-19T18:44:59.450Z,56.50
2019-04-19T18:47:27.081Z,56.60
2019-04-19T18:49:57.380Z,57.30
2019-04-19T18:52:36.739Z,57.20
2019-04-19T18:55:05.038Z,57.40
2019-04-19T18:57:32.966Z,57.70
2019-04-19T19:00:02.103Z,57.50
2019-04-19T19:02:32.312Z,57.50
2019-04-19T19:05:05.617Z,57.80
2019-04-19T19:07:32.985Z,57.80
2019-04-19T19:10:04.561Z,57.70
2019-04-19T19:12:39.509Z,58.10
2019-04-19T19:15:06.763Z,58.00
2019-04-19T19:17:36.282Z,58.10
2019-04-19T19:20:14.153Z,58.10
2019-04-19T19:22:58.556Z,58.30
2019-04-19T19:25:28.484Z,58.30
2019-04-19T19:27:48.666Z,58.30
2019-04-19T19:30:19.070Z,58.50
2019-04-19T19:32:53.093Z,58.60
2019-04-19T19:35:23.831Z,58.90
2019-04-19T19:37:52.402Z,58.60
2019-04-19T19:40:31.638Z,58.70
2019-04-19T19:43:12.044Z,59.00
2019-04-19T19:45:41.359Z,58.60
2019-04-19T19:48:26.420Z,59.00
2019-04-19T19:51:02.580Z,59.00
2019-04-19T19:53:40.342Z,58.90
2019-04-19T19:56:07.258Z,59.20
2019-04-19T19:58:25.577Z,59.10
2019-04-19T20:01:03.435Z,58.90
2019-04-19T20:03:23.675Z,59.20
2019-04-19T20:05:47.922Z,58.80
2019-04-19T20:08:21.384Z,59.40
2019-04-19T20:10:50.022Z,58.90
2019-04-19T20:13:21.385Z,59.00
2019-04-19T20:15:51.032Z,59.00
2019-04-19T20:18:25.240Z,59.00
2019-04-19T20:20:52.694Z,58.90
2019-04-19T20:23:31.160Z,59.00
2019-04-19T20:26:06.528Z,59.00
2019-04-19T20:28:30.662Z,59.00
2019-04-19T20:30:58.713Z,58.90
2019-04-19T20:33:34.402Z,59.00
2019-04-19T20:36:03.308Z,58.90
2019-04-19T20:38:35.697Z,59.50
2019-04-19T20:41:03.962Z,59.30
2019-04-19T20:43:46.152Z,59.30
2019-04-19T20:46:10.746Z,59.10
2019-04-19T20:48:35.304Z,59.40
2019-04-19T20:51:16.950Z,59.50
2019-04-19T20:53:55.240Z,59.90
2019-04-19T20:56:42.507Z,59.80
2019-04-19T20:58:55.423Z,60.00
2019-04-19T21:01:21.081Z,60.00
2019-04-19T21:03:50.622Z,60.10
2019-04-19T21:06:28.374Z,60.50
2019-04-19T21:08:53.317Z,60.50
2019-04-19T21:11:23.498Z,60.70
2019-04-19T21:13:58.297Z,60.70
2019-04-19T21:16:27.128Z,60.50
2019-04-19T21:19:00.190Z,60.70
2019-04-19T21:21:27.119Z,60.90
2019-04-19T21:24:03.170Z,60.90
2019-04-19T21:26:32.722Z,61.10
2019-04-19T21:28:59.657Z,61.10
2019-04-19T21:31:38.937Z,61.50
2019-04-19T21:34:05.457Z,61.50
2019-04-19T21:36:38.505Z,61.30
2019-04-19T21:39:06.452Z,61.30
2019-04-19T21:41:38.037Z,61.50
2019-04-19T21:44:10.283Z,61.50
2019-04-19T21:46:36.909Z,61.60
2019-04-19T21:49:11.434Z,61.70
2019-04-19T21:51:39.615Z,62.30
2019-04-19T21:54:10.455Z,61.90
2019-04-19T21:56:44.472Z,61.80
2019-04-19T21:59:11.230Z,61.90
2019-04-19T22:01:46.270Z,62.10
2019-04-19T22:04:14.104Z,62.10
2019-04-19T22:06:47.614Z,62.20
2019-04-19T22:09:20.473Z,62.40
2019-04-19T22:11:46.556Z,62.60
2019-04-19T22:14:20.416Z,62.50
2019-04-19T22:16:48.495Z,62.70
2019-04-19T22:19:22.521Z,62.70
2019-04-19T22:21:52.008Z,62.80
2019-04-19T22:24:29.085Z,62.80
2019-04-19T22:26:55.770Z,62.90
2019-04-19T22:29:24.023Z,63.00
2019-04-19T22:31:56.533Z,63.10
2019-04-19T22:34:24.593Z,63.20
2019-04-19T22:36:57.149Z,63.30
2019-04-19T22:39:25.575Z,63.30
2019-04-19T22:41:55.184Z,63.30
2019-04-19T22:44:24.881Z,63.50
2019-04-19T22:46:56.408Z,63.50
2019-04-19T22:49:28.125Z,63.70
2019-04-19T22:51:56.921Z,63.70
2019-04-19T22:54:26.627Z,63.90
2019-04-19T22:57:04.514Z,63.90
2019-04-19T22:59:27.583Z,63.50
2019-04-19T23:02:10.079Z,63.80
2019-04-19T23:04:39.088Z,63.50
2019-04-19T23:07:11.207Z,63.90
2019-04-19T23:09:39.792Z,64.00
2019-04-19T23:12:10.262Z,63.90
2019-04-19T23:14:52.082Z,63.90
2019-04-19T23:17:28.205Z,63.90
2019-04-19T23:19:53.429Z,63.80
2019-04-19T23:22:31.002Z,63.80
2019-04-19T23:24:58.444Z,63.80
2019-04-19T23:27:35.720Z,63.80
2019-04-19T23:30:15.149Z,63.80
2019-04-19T23:32:41.141Z,63.80
2019-04-19T23:35:12.008Z,63.90
2019-04-19T23:37:42.512Z,63.90
2019-04-19T23:40:13.172Z,64.00
2019-04-19T23:42:46.856Z,64.00
2019-04-19T23:45:14.682Z,64.10
2019-04-19T23:47:48.244Z,64.10
2019-04-19T23:50:17.475Z,64.10
2019-04-19T23:52:52.725Z,64.20
2019-04-19T23:55:18.234Z,65.10
2019-04-19T23:57:49.711Z,64.20
